Time;durP1;ratioP1;P1;durP2;ratioP2;P2;SDS_P1;SDS_P2;PMS_P1;PMS_P2;Temp;Humidity;BMP_temperature;BMP_pressure;BME280_temperature;BME280_humidity;BME280_pressure;Samples;Min_cycle;Max_cycle;Signal;HPM_P1;HPM_P2
2021/08/12 00:00:10;;;;;;;;;;;;;;;22.46;52.99;101634.41;1587227;38;154645;-52
2021/08/12 00:01:41;;;;;;;;;;;;;;;22.45;52.94;101635.53;1588529;38;154162;-52
2021/08/12 00:03:13;;;;;;;;;;;;;;;22.47;53.09;101632.41;1589511;38;153540;-53
2021/08/12 00:04:47;;;;;;;;;;;;;;;22.45;53.05;101629.91;1589535;38;154350;-52
2021/08/12 00:06:19;;;;;;;;;;;;;;;22.45;53.05;101624.25;1588981;38;154009;-52
2021/08/12 00:07:51;;;;;;;;;;;;;;;22.45;53.03;101620.59;1587720;38;153474;-52
2021/08/12 00:09:23;;;;;;;;;;;;;;;22.46;53.40;101623.13;1588422;38;154046;-52
2021/08/12 00:10:54;;;;;;;;;;;;;;;22.45;53.21;101629.91;1589388;38;153449;-52
2021/08/12 00:12:26;;;;;;;;;;;;;;;22.44;53.02;101622.59;1588259;30;154316;-52
2021/08/12 00:13:58;;;;;;;;;;;;;;;22.45;53.05;101626.25;1587462;30;153334;-52
2021/08/12 00:15:30;;;;;;;;;;;;;;;22.45;53.30;101627.09;1587326;38;153188;-52
2021/08/12 00:17:02;;;;;;;;;;;;;;;22.45;53.53;101626.25;1588106;38;153506;-52
2021/08/12 00:18:34;;;;;;;;;;;;;;;22.45;53.55;101621.44;1588052;30;154709;-53
2021/08/12 00:20:06;;;;;;;;;;;;;;;22.45;53.23;101620.59;1591204;38;154002;-52
2021/08/12 00:21:39;;;;;;;;;;;;;;;22.45;53.45;101623.44;1587540;38;151927;-52
2021/08/12 00:23:10;;;;;;;;;;;;;;;22.45;53.58;101620.59;1588672;30;152053;-52
2021/08/12 00:24:42;;;;;;;;;;;;;;;22.45;53.56;101624.25;1586630;30;152461;-52
2021/08/12 00:26:14;;;;;;;;;;;;;;;22.45;53.42;101629.06;1589381;38;151930;-52
2021/08/12 00:27:46;;;;;;;;;;;;;;;22.45;53.41;101615.81;1587473;38;152153;-52
2021/08/12 00:29:18;;;;;;;;;;;;;;;22.44;53.47;101611.31;1588711;38;152033;-53
2021/08/12 00:30:50;;;;;;;;;;;;;;;22.43;53.87;101611.66;1587674;38;151934;-52
2021/08/12 00:32:22;;;;;;;;;;;;;;;22.43;53.63;101608.84;1588508;38;151938;-53
2021/08/12 00:33:53;;;;;;;;;;;;;;;22.43;53.57;101609.66;1586395;38;152147;-52
2021/08/12 00:35:25;;;;;;;;;;;;;;;22.44;54.05;101614.13;1588372;38;152164;-52
2021/08/12 00:36:57;;;;;;;;;;;;;;;22.44;54.05;101613.34;1587235;38;152012;-53
2021/08/12 00:38:29;;;;;;;;;;;;;;;22.42;54.13;101610.81;1588229;30;152292;-52
2021/08/12 00:40:00;;;;;;;;;;;;;;;22.42;54.22;101615.59;1587623;38;152086;-52
2021/08/12 00:41:35;;;;;;;;;;;;;;;22.42;54.23;101609.97;1591532;38;152544;-53
2021/08/12 00:43:07;;;;;;;;;;;;;;;22.43;53.79;101606.84;1585581;38;153241;-52
2021/08/12 00:44:39;;;;;;;;;;;;;;;22.42;54.09;101609.97;1588346;38;153867;-52
2021/08/12 00:46:11;;;;;;;;;;;;;;;22.42;53.92;101601.53;1587774;38;152935;-52
2021/08/12 00:47:43;;;;;;;;;;;;;;;22.42;54.30;101613.63;1589180;38;152907;-52
2021/08/12 00:49:15;;;;;;;;;;;;;;;22.42;54.29;101608.00;1588469;38;153259;-51
2021/08/12 00:50:47;;;;;;;;;;;;;;;22.43;54.35;101609.66;1587340;38;153415;-52
2021/08/12 00:52:20;;;;;;;;;;;;;;;22.43;54.23;101606.03;1587855;38;153674;-52
2021/08/12 00:53:52;;;;;;;;;;;;;;;22.42;54.68;101602.38;1588421;38;153180;-52
2021/08/12 00:55:24;;;;;;;;;;;;;;;22.43;54.59;101598.41;1588471;30;153470;-52
2021/08/12 00:56:57;;;;;;;;;;;;;;;22.43;54.78;101608.84;1587861;38;153088;-53
2021/08/12 00:58:32;;;;;;;;;;;;;;;22.43;54.46;101609.66;1587242;38;154127;-53
2021/08/12 01:00:05;;;;;;;;;;;;;;;22.45;54.79;101612.16;1588839;38;153297;-52
2021/08/12 01:01:37;;;;;;;;;;;;;;;22.45;54.49;101612.16;1586288;38;153280;-52
2021/08/12 01:03:10;;;;;;;;;;;;;;;22.45;54.73;101613.00;1589798;38;152959;-53
2021/08/12 01:04:43;;;;;;;;;;;;;;;22.46;54.97;101608.22;1587643;30;153623;-52
2021/08/12 01:06:17;;;;;;;;;;;;;;;22.46;55.05;101611.03;1588130;38;153914;-55
2021/08/12 01:07:56;;;;;;;;;;;;;;;22.45;54.63;101614.97;1585702;38;154467;-53
2021/08/12 01:09:32;;;;;;;;;;;;;;;22.46;54.71;101619.47;1587378;38;153503;-52
2021/08/12 01:11:14;;;;;;;;;;;;;;;22.44;54.69;101608.50;1586372;38;154039;-52
2021/08/12 01:12:55;;;;;;;;;;;;;;;22.44;54.82;101611.31;1588474;38;154235;-52
2021/08/12 01:14:36;;;;;;;;;;;;;;;22.45;54.78;101607.38;1587734;38;154247;-52
2021/08/12 01:16:10;;;;;;;;;;;;;;;22.46;55.01;101609.06;1587921;38;154259;-52
2021/08/12 01:17:46;;;;;;;;;;;;;;;22.45;55.11;101606.53;1587730;38;154168;-52
2021/08/12 01:19:18;;;;;;;;;;;;;;;22.44;54.95;101607.69;1588594;30;153426;-52
2021/08/12 01:20:50;;;;;;;;;;;;;;;22.45;54.93;101603.72;1586333;38;154525;-53
2021/08/12 01:22:23;;;;;;;;;;;;;;;22.45;55.15;101606.53;1588381;38;152725;-53
2021/08/12 01:24:00;;;;;;;;;;;;;;;22.45;55.18;101618.63;1589644;30;155588;-52
2021/08/12 01:25:33;;;;;;;;;;;;;;;22.44;55.16;101600.06;1589844;38;153539;-53
2021/08/12 01:27:07;;;;;;;;;;;;;;;22.44;55.22;101600.06;1588569;38;151837;-53
2021/08/12 01:28:43;;;;;;;;;;;;;;;22.43;55.00;101595.59;1589292;38;152011;-54
2021/08/12 01:30:16;;;;;;;;;;;;;;;22.44;55.14;101602.88;1588033;38;152584;-53
2021/08/12 01:31:58;;;;;;;;;;;;;;;22.44;55.15;101602.06;1587282;38;152002;-53
2021/08/12 01:33:39;;;;;;;;;;;;;;;22.43;55.65;101589.97;1586208;38;152129;-52
2021/08/12 01:35:13;;;;;;;;;;;;;;;22.43;55.45;101592.78;1588527;38;151938;-52
2021/08/12 01:36:46;;;;;;;;;;;;;;;22.44;55.44;101593.63;1588971;30;152071;-52
2021/08/12 01:38:21;;;;;;;;;;;;;;;22.43;55.58;101589.13;1586382;38;151999;-53
2021/08/12 01:39:55;;;;;;;;;;;;;;;22.42;55.48;101591.09;1588151;38;152253;-52
2021/08/12 01:41:28;;;;;;;;;;;;;;;22.44;55.51;101587.97;1587613;30;152106;-52
2021/08/12 01:43:01;;;;;;;;;;;;;;;22.45;55.33;101584.84;1585533;38;152865;-53
2021/08/12 01:44:33;;;;;;;;;;;;;;;22.46;55.53;101580.88;1585345;38;153007;-53
2021/08/12 01:46:06;;;;;;;;;;;;;;;22.47;55.62;101579.75;1587655;38;152142;-52
2021/08/12 01:47:40;;;;;;;;;;;;;;;22.47;55.46;101582.56;1589204;30;152164;-52
2021/08/12 01:49:12;;;;;;;;;;;;;;;22.48;55.51;101595.50;1590942;30;152660;-53
2021/08/12 01:50:44;;;;;;;;;;;;;;;22.48;55.75;101598.34;1586663;38;152887;-52
2021/08/12 01:52:18;;;;;;;;;;;;;;;22.47;55.78;101582.56;1586350;38;153165;-53
2021/08/12 01:53:50;;;;;;;;;;;;;;;22.47;55.88;101579.75;1589346;38;153532;-52
2021/08/12 01:55:25;;;;;;;;;;;;;;;22.47;55.70;101587.38;1589995;30;153730;-52
2021/08/12 01:56:57;;;;;;;;;;;;;;;22.47;55.48;101596.66;1589574;30;153419;-52
2021/08/12 01:58:29;;;;;;;;;;;;;;;22.46;55.90;101589.34;1587865;38;153493;-53
2021/08/12 02:00:01;;;;;;;;;;;;;;;22.46;56.04;101583.72;1589612;38;152771;-53
2021/08/12 02:01:33;;;;;;;;;;;;;;;22.46;55.82;101583.72;1586628;38;153206;-52
2021/08/12 02:03:06;;;;;;;;;;;;;;;22.49;56.04;101585.91;1588460;38;154072;-52
2021/08/12 02:04:39;;;;;;;;;;;;;;;22.48;55.82;101589.03;1587686;38;152840;-53
2021/08/12 02:06:11;;;;;;;;;;;;;;;22.48;56.06;101578.63;1590094;30;152864;-53
2021/08/12 02:07:44;;;;;;;;;;;;;;;22.49;55.89;101585.06;1587193;38;152715;-53
2021/08/12 02:09:16;;;;;;;;;;;;;;;22.47;55.91;101581.72;1589562;38;153250;-53
2021/08/12 02:10:49;;;;;;;;;;;;;;;22.48;56.17;101580.59;1591138;38;153152;-52
2021/08/12 02:12:20;;;;;;;;;;;;;;;22.48;55.83;101580.59;1588172;38;154318;-52
2021/08/12 02:13:52;;;;;;;;;;;;;;;22.49;55.79;101577.44;1588023;38;156171;-53
2021/08/12 02:15:24;;;;;;;;;;;;;;;22.50;55.77;101581.09;1587753;38;153531;-51
2021/08/12 02:16:56;;;;;;;;;;;;;;;22.49;56.19;101579.44;1587836;38;153743;-52
2021/08/12 02:18:27;;;;;;;;;;;;;;;22.48;56.14;101581.44;1586704;38;153836;-53
2021/08/12 02:20:01;;;;;;;;;;;;;;;22.48;55.93;101574.97;1587502;38;154931;-53
2021/08/12 02:21:36;;;;;;;;;;;;;;;22.47;55.94;101576.94;1589174;38;152589;-53
2021/08/12 02:23:13;;;;;;;;;;;;;;;22.47;56.34;101568.50;1589368;30;154996;-52
2021/08/12 02:24:55;;;;;;;;;;;;;;;22.47;56.35;101576.94;1587784;38;153441;-52
2021/08/12 02:26:30;;;;;;;;;;;;;;;22.47;56.29;101568.50;1589023;38;153520;-53
2021/08/12 02:28:03;;;;;;;;;;;;;;;22.47;56.51;101574.13;1587703;38;155554;-53
2021/08/12 02:29:36;;;;;;;;;;;;;;;22.48;56.07;101570.16;1588456;38;154052;-52
2021/08/12 02:31:09;;;;;;;;;;;;;;;22.49;56.08;101573.78;1588161;30;153542;-53
2021/08/12 02:32:42;;;;;;;;;;;;;;;22.48;56.51;101569.34;1590242;38;153653;-53
2021/08/12 02:34:15;;;;;;;;;;;;;;;22.48;56.17;101570.16;1586808;30;152276;-52
2021/08/12 02:35:48;;;;;;;;;;;;;;;22.49;56.44;101569.00;1587530;38;151910;-53
2021/08/12 02:37:20;;;;;;;;;;;;;;;22.47;56.64;101568.50;1586288;38;151803;-52
2021/08/12 02:38:53;;;;;;;;;;;;;;;22.47;56.81;101564.84;1587135;38;152635;-53
2021/08/12 02:40:26;;;;;;;;;;;;;;;22.46;56.70;101571.59;1588730;30;152437;-52
2021/08/12 02:42:00;;;;;;;;;;;;;;;22.47;56.60;101570.47;1588045;38;152126;-51
2021/08/12 02:43:35;;;;;;;;;;;;;;;22.45;56.92;101567.94;1586263;38;152500;-52
2021/08/12 02:45:08;;;;;;;;;;;;;;;22.45;56.53;101570.75;1588915;38;152127;-53
2021/08/12 02:46:40;;;;;;;;;;;;;;;22.45;56.71;101559.50;1588663;38;152215;-53
2021/08/12 02:48:12;;;;;;;;;;;;;;;22.45;56.67;101559.50;1586440;38;152116;-52
2021/08/12 02:49:45;;;;;;;;;;;;;;;22.47;57.04;101551.59;1587935;30;151754;-52
2021/08/12 02:51:17;;;;;;;;;;;;;;;22.47;57.12;101554.41;1588647;38;152482;-52
2021/08/12 02:52:50;;;;;;;;;;;;;;;22.46;57.10;101552.72;1588896;30;152124;-52
2021/08/12 02:54:22;;;;;;;;;;;;;;;22.48;56.87;101549.63;1590351;38;151774;-52
2021/08/12 02:55:54;;;;;;;;;;;;;;;22.48;56.78;101556.09;1587473;30;155452;-52
2021/08/12 02:57:26;;;;;;;;;;;;;;;22.49;57.27;101545.63;1588660;38;152137;-52
2021/08/12 02:58:58;;;;;;;;;;;;;;;22.47;57.28;101545.13;1589497;38;153804;-52
2021/08/12 03:00:31;;;;;;;;;;;;;;;22.47;57.24;101547.94;1587852;30;153625;-53
2021/08/12 03:02:03;;;;;;;;;;;;;;;22.47;57.20;101545.97;1587865;38;153321;-53
2021/08/12 03:03:37;;;;;;;;;;;;;;;22.47;57.14;101545.97;1587076;30;153318;-52
2021/08/12 03:05:09;;;;;;;;;;;;;;;22.47;57.18;101545.97;1588401;38;152824;-52
2021/08/12 03:06:41;;;;;;;;;;;;;;;22.46;57.09;101549.91;1587782;38;153015;-53
2021/08/12 03:08:15;;;;;;;;;;;;;;;22.47;57.43;101553.56;1588454;38;153636;-53
2021/08/12 03:09:48;;;;;;;;;;;;;;;22.47;57.50;101543.16;1587332;38;155516;-53
2021/08/12 03:11:21;;;;;;;;;;;;;;;22.48;57.10;101550.47;1588282;38;154102;-52
2021/08/12 03:12:53;;;;;;;;;;;;;;;22.47;57.32;101543.16;1589282;30;153316;-52
2021/08/12 03:14:26;;;;;;;;;;;;;;;22.48;57.16;101543.97;1586843;30;153550;-52
2021/08/12 03:15:58;;;;;;;;;;;;;;;22.47;57.69;101545.97;1589039;38;153644;-52
2021/08/12 03:17:30;;;;;;;;;;;;;;;22.48;57.21;101546.81;1588914;38;154527;-52
2021/08/12 03:19:02;;;;;;;;;;;;;;;22.48;57.12;101542.00;1587679;30;154069;-52
2021/08/12 03:20:34;;;;;;;;;;;;;;;22.48;57.68;101546.81;1587266;30;153366;-52
2021/08/12 03:22:09;;;;;;;;;;;;;;;22.48;57.42;101550.47;1588319;30;154017;-53
2021/08/12 03:23:41;;;;;;;;;;;;;;;22.48;57.67;101547.66;1588756;38;154415;-52
2021/08/12 03:25:13;;;;;;;;;;;;;;;22.48;57.75;101550.47;1588285;38;153874;-53
2021/08/12 03:26:51;;;;;;;;;;;;;;;22.47;57.61;101554.41;1586413;38;153855;-53
2021/08/12 03:28:23;;;;;;;;;;;;;;;22.47;57.65;101554.41;1589245;38;154414;-52
2021/08/12 03:29:54;;;;;;;;;;;;;;;22.47;57.56;101548.78;1587892;38;153605;-52
2021/08/12 03:31:26;;;;;;;;;;;;;;;22.46;58.08;101561.19;1589418;30;154433;-53
2021/08/12 03:32:58;;;;;;;;;;;;;;;22.45;58.15;101559.50;1588056;38;153918;-52
2021/08/12 03:34:30;;;;;;;;;;;;;;;22.45;57.75;101562.31;1587349;38;153314;-52
2021/08/12 03:36:01;;;;;;;;;;;;;;;22.44;57.84;101566.28;1587096;38;153359;-53
2021/08/12 03:37:33;;;;;;;;;;;;;;;22.44;58.21;101569.09;1589003;38;153367;-52
2021/08/12 03:39:05;;;;;;;;;;;;;;;22.45;58.34;101567.09;1590767;38;154324;-52
2021/08/12 03:40:37;;;;;;;;;;;;;;;22.44;57.91;101566.28;1586552;30;152481;-52
2021/08/12 03:42:09;;;;;;;;;;;;;;;22.45;58.42;101564.28;1588643;38;152504;-52
2021/08/12 03:43:41;;;;;;;;;;;;;;;22.45;58.07;101559.50;1585555;38;152560;-52
2021/08/12 03:45:12;;;;;;;;;;;;;;;22.47;58.18;101567.66;1587116;38;152256;-52
2021/08/12 03:46:44;;;;;;;;;;;;;;;22.45;58.40;101567.94;1588689;38;152109;-52
2021/08/12 03:48:16;;;;;;;;;;;;;;;22.45;57.92;101564.28;1589244;38;151962;-53
2021/08/12 03:49:48;;;;;;;;;;;;;;;22.45;58.15;101558.66;1588558;38;152003;-52
2021/08/12 03:51:20;;;;;;;;;;;;;;;22.45;58.08;101556.69;1588109;38;152508;-53
2021/08/12 03:52:51;;;;;;;;;;;;;;;22.44;58.20;101557.00;1589420;38;152215;-53
2021/08/12 03:54:24;;;;;;;;;;;;;;;22.46;58.72;101552.72;1587336;38;152924;-53
2021/08/12 03:56:00;;;;;;;;;;;;;;;22.46;58.42;101551.88;1587930;38;152414;-53
2021/08/12 03:57:31;;;;;;;;;;;;;;;22.47;58.68;101548.78;1589238;38;152150;-53
2021/08/12 03:59:04;;;;;;;;;;;;;;;22.47;58.24;101548.78;1586122;38;152118;-53
2021/08/12 04:00:36;;;;;;;;;;;;;;;22.46;58.29;101555.53;1589909;38;152259;-53
2021/08/12 04:02:08;;;;;;;;;;;;;;;22.47;58.55;101554.41;1588247;30;153634;-53
2021/08/12 04:03:40;;;;;;;;;;;;;;;22.45;58.48;101551.06;1588765;38;153798;-52
2021/08/12 04:05:12;;;;;;;;;;;;;;;22.46;58.92;101549.06;1589494;38;153436;-52
2021/08/12 04:06:44;;;;;;;;;;;;;;;22.47;58.74;101565.69;1587123;38;153314;-53
2021/08/12 04:08:16;;;;;;;;;;;;;;;22.47;58.91;101559.19;1587867;30;152894;-53
2021/08/12 04:09:47;;;;;;;;;;;;;;;22.46;58.77;101552.72;1587996;38;153266;-53
2021/08/12 04:11:19;;;;;;;;;;;;;;;22.47;58.78;101556.38;1589045;30;152719;-52
2021/08/12 04:12:51;;;;;;;;;;;;;;;22.47;59.02;101560.03;1588282;38;154760;-53
2021/08/12 04:14:23;;;;;;;;;;;;;;;22.48;58.59;101549.63;1587389;38;153591;-52
2021/08/12 04:15:56;;;;;;;;;;;;;;;22.46;58.98;101551.88;1587922;30;153323;-52
2021/08/12 04:17:28;;;;;;;;;;;;;;;22.45;59.09;101550.22;1587853;30;153560;-53
2021/08/12 04:19:00;;;;;;;;;;;;;;;22.43;59.12;101550.53;1587769;30;153565;-53
2021/08/12 04:20:31;;;;;;;;;;;;;;;22.45;58.93;101553.03;1588727;30;153143;-53
2021/08/12 04:22:03;;;;;;;;;;;;;;;22.44;58.89;101549.38;1591123;38;152913;-52
2021/08/12 04:23:35;;;;;;;;;;;;;;;22.44;58.98;101555.00;1587411;38;154005;-53
2021/08/12 04:25:07;;;;;;;;;;;;;;;22.44;59.22;101552.19;1587390;30;153481;-52
2021/08/12 04:26:39;;;;;;;;;;;;;;;22.44;59.04;101560.63;1587190;38;153670;-52
2021/08/12 04:28:11;;;;;;;;;;;;;;;22.45;59.25;101553.88;1586874;38;154830;-53
2021/08/12 04:29:43;;;;;;;;;;;;;;;22.47;59.02;101548.78;1587543;38;153615;-53
2021/08/12 04:31:14;;;;;;;;;;;;;;;22.49;59.06;101559.72;1588852;30;155975;-52
2021/08/12 04:32:46;;;;;;;;;;;;;;;22.45;59.08;101553.88;1588973;30;154142;-52
2021/08/12 04:34:19;;;;;;;;;;;;;;;22.46;59.16;101551.88;1589788;30;154621;-52
2021/08/12 04:35:51;;;;;;;;;;;;;;;22.46;59.21;101552.72;1587915;38;153467;-53
2021/08/12 04:37:25;;;;;;;;;;;;;;;22.47;59.73;101553.56;1588061;38;154443;-52
2021/08/12 04:38:57;;;;;;;;;;;;;;;22.47;59.60;101554.41;1588574;38;154127;-53
2021/08/12 04:40:29;;;;;;;;;;;;;;;22.45;59.90;101553.03;1588239;38;154497;-53
2021/08/12 04:42:01;;;;;;;;;;;;;;;22.44;59.52;101546.56;1588625;38;153703;-53
2021/08/12 04:43:34;;;;;;;;;;;;;;;22.45;59.40;101551.06;1590990;31;153541;-53
2021/08/12 04:45:06;;;;;;;;;;;;;;;22.45;59.45;101556.69;1589572;38;152273;-52
2021/08/12 04:46:38;;;;;;;;;;;;;;;22.44;59.97;101563.44;1589219;30;152628;-52
2021/08/12 04:48:10;;;;;;;;;;;;;;;22.44;59.59;101552.19;1587987;38;152509;-52
2021/08/12 04:49:42;;;;;;;;;;;;;;;22.46;59.95;101557.53;1588251;38;152101;-53
2021/08/12 04:51:13;;;;;;;;;;;;;;;22.46;59.74;101564.00;1588998;30;152050;-52
2021/08/12 04:52:45;;;;;;;;;;;;;;;22.46;59.89;101555.53;1587719;38;151789;-52
2021/08/12 04:54:18;;;;;;;;;;;;;;;22.45;60.23;101558.66;1588468;38;152062;-52
2021/08/12 04:55:50;;;;;;;;;;;;;;;22.45;60.22;101564.28;1589108;38;152639;-52
2021/08/12 04:57:22;;;;;;;;;;;;;;;22.45;60.26;101562.31;1587181;38;152456;-52
2021/08/12 04:58:57;;;;;;;;;;;;;;;22.46;60.12;101561.19;1588087;38;152532;-53
2021/08/12 05:00:29;;;;;;;;;;;;;;;22.47;60.22;101565.69;1588806;38;152231;-52
2021/08/12 05:02:01;;;;;;;;;;;;;;;22.47;60.26;101568.50;1588288;38;152363;-52
2021/08/12 05:03:33;;;;;;;;;;;;;;;22.47;59.99;101562.03;1588023;38;152046;-53
2021/08/12 05:05:05;;;;;;;;;;;;;;;22.49;59.89;101562.53;1588111;38;152166;-52
2021/08/12 05:06:36;;;;;;;;;;;;;;;22.47;60.14;101562.03;1589361;38;152326;-51
2021/08/12 05:08:08;;;;;;;;;;;;;;;22.46;60.03;101555.53;1588522;38;153327;-52
2021/08/12 05:09:40;;;;;;;;;;;;;;;22.44;60.51;101557.81;1587584;38;152955;-52
2021/08/12 05:11:13;;;;;;;;;;;;;;;22.44;60.39;101555.00;1588005;38;153317;-53
2021/08/12 05:12:45;;;;;;;;;;;;;;;22.44;60.64;101555.00;1588470;38;152923;-53
2021/08/12 05:14:17;;;;;;;;;;;;;;;22.44;60.64;101560.63;1587822;38;153300;-53
2021/08/12 05:15:49;;;;;;;;;;;;;;;22.44;60.51;101554.19;1587739;38;154320;-52
2021/08/12 05:17:21;;;;;;;;;;;;;;;22.43;60.77;101553.34;1586669;38;152857;-52
2021/08/12 05:18:52;;;;;;;;;;;;;;;22.44;60.51;101560.63;1587855;38;153584;-51
2021/08/12 05:20:24;;;;;;;;;;;;;;;22.45;60.39;101567.09;1589039;30;153508;-52
2021/08/12 05:21:56;;;;;;;;;;;;;;;22.45;60.37;101556.69;1588246;38;153384;-52
2021/08/12 05:23:28;;;;;;;;;;;;;;;22.44;60.69;101555.00;1589057;30;153364;-53
2021/08/12 05:25:00;;;;;;;;;;;;;;;22.46;60.66;101554.72;1589110;38;152987;-52
2021/08/12 05:26:32;;;;;;;;;;;;;;;22.46;60.48;101551.88;1586271;38;153211;-52
2021/08/12 05:28:04;;;;;;;;;;;;;;;22.46;60.43;101558.38;1591283;38;152884;-52
2021/08/12 05:29:36;;;;;;;;;;;;;;;22.44;60.95;101563.44;1589204;38;153850;-52
2021/08/12 05:31:08;;;;;;;;;;;;;;;22.45;60.87;101559.50;1589102;38;154244;-52
2021/08/12 05:32:39;;;;;;;;;;;;;;;22.45;60.60;101561.47;1589580;38;154674;-52
2021/08/12 05:34:11;;;;;;;;;;;;;;;22.45;60.58;101558.66;1587835;38;153641;-52
2021/08/12 05:35:43;;;;;;;;;;;;;;;22.47;61.00;101562.84;1589576;30;154017;-53
2021/08/12 05:37:14;;;;;;;;;;;;;;;22.45;60.89;101564.28;1589265;30;154269;-52
2021/08/12 05:38:46;;;;;;;;;;;;;;;22.46;61.01;101564.00;1587806;38;154005;-53
2021/08/12 05:40:18;;;;;;;;;;;;;;;22.46;60.57;101568.78;1588540;38;153934;-52
2021/08/12 05:41:50;;;;;;;;;;;;;;;22.45;60.74;101567.09;1588844;38;154121;-53
2021/08/12 05:43:21;;;;;;;;;;;;;;;22.45;60.63;101567.09;1588857;30;153871;-53
2021/08/12 05:44:53;;;;;;;;;;;;;;;22.46;61.04;101571.59;1587877;38;153371;-53
2021/08/12 05:46:25;;;;;;;;;;;;;;;22.45;60.94;101564.28;1589022;38;153212;-53
2021/08/12 05:47:57;;;;;;;;;;;;;;;22.45;61.22;101567.09;1588489;38;152486;-53
2021/08/12 05:49:28;;;;;;;;;;;;;;;22.45;60.95;101567.09;1588866;38;153572;-54
2021/08/12 05:51:00;;;;;;;;;;;;;;;22.43;61.39;101569.41;1589318;38;152834;-53
2021/08/12 05:52:32;;;;;;;;;;;;;;;22.42;61.37;101564.91;1589024;38;152496;-53
2021/08/12 05:54:04;;;;;;;;;;;;;;;22.41;61.24;101566.88;1587491;38;152057;-53
2021/08/12 05:55:36;;;;;;;;;;;;;;;22.42;61.13;101567.72;1586139;38;151977;-53
2021/08/12 05:57:07;;;;;;;;;;;;;;;22.43;61.29;101560.97;1588678;38;152926;-53
2021/08/12 05:58:39;;;;;;;;;;;;;;;22.42;61.15;101568.56;1587158;30;152026;-52
2021/08/12 06:00:11;;;;;;;;;;;;;;;22.43;61.58;101572.22;1589299;38;152139;-53
2021/08/12 06:01:43;;;;;;;;;;;;;;;22.43;61.21;101569.41;1585557;30;152606;-52
2021/08/12 06:03:15;;;;;;;;;;;;;;;22.43;61.22;101569.41;1586774;38;152293;-52
2021/08/12 06:04:47;;;;;;;;;;;;;;;22.43;61.49;101570.25;1588835;38;152287;-53
2021/08/12 06:06:19;;;;;;;;;;;;;;;22.43;61.53;101566.59;1587275;38;152613;-53
2021/08/12 06:07:51;;;;;;;;;;;;;;;22.42;61.50;101564.91;1588534;38;151987;-53
2021/08/12 06:09:23;;;;;;;;;;;;;;;22.42;61.43;101574.19;1586369;38;153584;-53
2021/08/12 06:10:55;;;;;;;;;;;;;;;22.42;61.36;101574.19;1591293;38;152120;-52
2021/08/12 06:12:31;;;;;;;;;;;;;;;22.44;61.79;101571.09;1589547;38;152868;-52
2021/08/12 06:14:03;;;;;;;;;;;;;;;22.44;61.36;101571.09;1587390;38;153500;-51
2021/08/12 06:15:35;;;;;;;;;;;;;;;22.43;61.35;101575.88;1587463;38;152651;-52
2021/08/12 06:17:07;;;;;;;;;;;;;;;22.43;61.89;101577.84;1588057;38;152783;-52
2021/08/12 06:18:43;;;;;;;;;;;;;;;22.43;61.81;101580.66;1589276;30;154610;-52
2021/08/12 06:20:15;;;;;;;;;;;;;;;22.44;61.58;101577.53;1587986;38;153241;-52
2021/08/12 06:21:47;;;;;;;;;;;;;;;22.44;61.51;101571.91;1589271;38;154025;-52
2021/08/12 06:23:19;;;;;;;;;;;;;;;22.45;61.81;101582.03;1586626;38;153853;-52
2021/08/12 06:24:50;;;;;;;;;;;;;;;22.44;62.18;101582.34;1586975;38;152887;-53
2021/08/12 06:26:22;;;;;;;;;;;;;;;22.44;61.80;101582.34;1587920;31;152709;-53
2021/08/12 06:27:54;;;;;;;;;;;;;;;22.44;62.19;101585.97;1588156;38;153679;-52
2021/08/12 06:29:26;;;;;;;;;;;;;;;22.44;62.33;101579.53;1587709;38;153536;-53
2021/08/12 06:30:57;;;;;;;;;;;;;;;22.45;62.30;101581.19;1586748;38;153653;-52
2021/08/12 06:32:29;;;;;;;;;;;;;;;22.45;62.17;101584.84;1589432;38;153409;-53
2021/08/12 06:34:01;;;;;;;;;;;;;;;22.44;62.43;101588.78;1588266;38;153114;-53
2021/08/12 06:35:34;;;;;;;;;;;;;;;22.46;62.48;101585.69;1589210;38;153732;-53
2021/08/12 06:37:07;;;;;;;;;;;;;;;22.43;62.06;101581.50;1588759;38;154068;-52
2021/08/12 06:38:38;;;;;;;;;;;;;;;22.43;62.26;101587.16;1586417;38;152877;-52
2021/08/12 06:40:12;;;;;;;;;;;;;;;22.44;62.16;101587.97;1588602;38;153905;-52
2021/08/12 06:41:44;;;;;;;;;;;;;;;22.43;62.30;101587.16;1587259;38;154452;-53
2021/08/12 06:43:15;;;;;;;;;;;;;;;22.44;62.24;101582.34;1587352;30;154588;-52
2021/08/12 06:44:47;;;;;;;;;;;;;;;22.46;62.56;101580.06;1589524;38;154164;-53
2021/08/12 06:46:19;;;;;;;;;;;;;;;22.44;62.61;101577.53;1589537;38;155455;-53
2021/08/12 06:47:51;;;;;;;;;;;;;;;22.42;62.60;101574.19;1587904;38;154216;-53
2021/08/12 06:49:24;;;;;;;;;;;;;;;22.40;62.57;101579.28;1588905;38;154132;-52
2021/08/12 06:50:56;;;;;;;;;;;;;;;22.43;62.50;101587.16;1588617;38;154242;-60
2021/08/12 06:52:28;;;;;;;;;;;;;;;22.43;62.75;101581.50;1587375;38;154786;-53
2021/08/12 06:54:03;;;;;;;;;;;;;;;22.43;62.37;101578.69;1588075;38;154383;-53
2021/08/12 06:55:35;;;;;;;;;;;;;;;22.43;62.43;101587.16;1590979;38;153934;-52
2021/08/12 06:57:07;;;;;;;;;;;;;;;22.43;62.63;101584.31;1589660;38;152710;-53
2021/08/12 06:58:39;;;;;;;;;;;;;;;22.44;62.82;101593.63;1590362;30;152208;-52
2021/08/12 07:00:12;;;;;;;;;;;;;;;22.44;62.88;101587.97;1590137;38;152039;-52
2021/08/12 07:01:43;;;;;;;;;;;;;;;22.43;62.82;101592.78;1589156;38;152147;-53
2021/08/12 07:03:15;;;;;;;;;;;;;;;22.44;62.64;101583.16;1587731;38;152269;-52
2021/08/12 07:04:47;;;;;;;;;;;;;;;22.44;62.95;101591.59;1588563;38;152261;-53
2021/08/12 07:06:19;;;;;;;;;;;;;;;22.44;62.85;101585.97;1586952;38;152571;-53
2021/08/12 07:07:51;;;;;;;;;;;;;;;22.44;62.86;101585.97;1588254;38;152670;-52
2021/08/12 07:09:24;;;;;;;;;;;;;;;22.45;63.11;101586.81;1587954;38;152164;-52
2021/08/12 07:10:56;;;;;;;;;;;;;;;22.45;63.10;101587.66;1589308;30;152317;-53
2021/08/12 07:12:28;;;;;;;;;;;;;;;22.45;63.40;101590.47;1587679;38;152020;-52
2021/08/12 07:13:59;;;;;;;;;;;;;;;22.45;63.25;101587.66;1586934;30;152389;-53
2021/08/12 07:15:31;;;;;;;;;;;;;;;22.46;63.08;101596.94;1588836;38;152123;-53
2021/08/12 07:17:03;;;;;;;;;;;;;;;22.46;63.40;101597.78;1592305;30;151966;-52
2021/08/12 07:18:35;;;;;;;;;;;;;;;22.45;63.56;101596.09;1587912;38;153413;-53
2021/08/12 07:20:07;;;;;;;;;;;;;;;22.45;63.25;101604.56;1589922;30;153754;-54
2021/08/12 07:21:40;;;;;;;;;;;;;;;22.42;64.01;101604.34;1589335;38;153775;-52
2021/08/12 07:23:12;;;;;;;;;;;;;;;22.41;63.91;101588.56;1588241;38;153473;-52
2021/08/12 07:24:44;;;;;;;;;;;;;;;22.40;64.32;101596.19;1588559;38;153066;-52
2021/08/12 07:26:16;;;;;;;;;;;;;;;22.37;65.05;101605.25;1586947;38;153433;-52
2021/08/12 07:27:50;;;;;;;;;;;;;;;22.42;64.45;101596.72;1589257;30;153498;-53
2021/08/12 07:29:22;;;;;;;;;;;;;;;22.39;64.17;101599.31;1588494;38;153547;-52
2021/08/12 07:30:54;;;;;;;;;;;;;;;22.40;64.68;101593.38;1588641;38;153593;-53
2021/08/12 07:32:26;;;;;;;;;;;;;;;22.42;64.42;101596.72;1587763;38;152734;-53
2021/08/12 07:33:59;;;;;;;;;;;;;;;22.42;64.34;101608.00;1589189;38;152750;-52
2021/08/12 07:35:31;;;;;;;;;;;;;;;22.41;64.40;101603.50;1589556;38;152937;-52
2021/08/12 07:37:04;;;;;;;;;;;;;;;22.42;64.36;101601.53;1589584;38;153298;-52
2021/08/12 07:38:37;;;;;;;;;;;;;;;22.42;64.33;101596.72;1590345;38;153215;-52
2021/08/12 07:40:09;;;;;;;;;;;;;;;22.42;64.73;101595.88;1589715;30;153747;-52
2021/08/12 07:41:42;;;;;;;;;;;;;;;22.43;64.76;101597.56;1587822;38;153820;-52
2021/08/12 07:43:14;;;;;;;;;;;;;;;22.42;64.34;101593.06;1589242;30;153554;-52
2021/08/12 07:44:46;;;;;;;;;;;;;;;22.42;64.46;101604.34;1588911;30;153867;-52
2021/08/12 07:46:18;;;;;;;;;;;;;;;22.41;64.35;101595.06;1588745;38;153510;-52
2021/08/12 07:47:50;;;;;;;;;;;;;;;22.32;65.09;101593.22;1586512;38;154320;-52
2021/08/12 07:49:22;;;;;;;;;;;;;;;22.31;65.72;101592.38;1589460;38;154701;-52